sensor_id;sensor_type;location;lat;lon;timestamp;P1;durP1;ratioP1;P2;durP2;ratioP2
2452;SDS011;63678;47.994;7.854;2022-09-21T00:01:08;6.78;;;3.10;;
2452;SDS011;63678;47.994;7.854;2022-09-21T00:03:43;5.70;;;3.15;;
2452;SDS011;63678;47.994;7.854;2022-09-21T00:06:17;8.32;;;3.10;;
2452;SDS011;63678;47.994;7.854;2022-09-21T00:08:50;6.40;;;3.33;;
2452;SDS011;63678;47.994;7.854;2022-09-21T00:11:24;6.75;;;3.53;;
2452;SDS011;63678;47.994;7.854;2022-09-21T00:14:00;6.97;;;3.30;;
2452;SDS011;63678;47.994;7.854;2022-09-21T00:16:35;8.15;;;3.40;;
2452;SDS011;63678;47.994;7.854;2022-09-21T00:19:08;6.65;;;3.40;;
2452;SDS011;63678;47.994;7.854;2022-09-21T00:21:40;8.10;;;3.70;;
2452;SDS011;63678;47.994;7.854;2022-09-21T00:24:12;7.50;;;3.50;;
2452;SDS011;63678;47.994;7.854;2022-09-21T00:26:45;7.15;;;3.20;;
2452;SDS011;63678;47.994;7.854;2022-09-21T00:29:17;7.47;;;3.33;;
2452;SDS011;63678;47.994;7.854;2022-09-21T00:31:49;7.50;;;3.50;;
2452;SDS011;63678;47.994;7.854;2022-09-21T00:34:21;7.60;;;3.20;;
2452;SDS011;63678;47.994;7.854;2022-09-21T00:36:53;7.68;;;3.30;;
2452;SDS011;63678;47.994;7.854;2022-09-21T00:39:25;7.30;;;3.40;;
2452;SDS011;63678;47.994;7.854;2022-09-21T00:41:57;6.50;;;3.30;;
2452;SDS011;63678;47.994;7.854;2022-09-21T00:44:30;9.75;;;3.60;;
2452;SDS011;63678;47.994;7.854;2022-09-21T00:47:05;6.22;;;3.15;;
2452;SDS011;63678;47.994;7.854;2022-09-21T00:49:43;7.57;;;3.30;;
2452;SDS011;63678;47.994;7.854;2022-09-21T00:52:21;6.77;;;3.20;;
2452;SDS011;63678;47.994;7.854;2022-09-21T00:54:55;6.03;;;3.10;;
2452;SDS011;63678;47.994;7.854;2022-09-21T00:57:30;8.85;;;3.50;;
2452;SDS011;63678;47.994;7.854;2022-09-21T01:00:04;8.27;;;3.30;;
2452;SDS011;63678;47.994;7.854;2022-09-21T01:02:39;7.95;;;3.22;;
2452;SDS011;63678;47.994;7.854;2022-09-21T01:05:13;7.32;;;3.28;;
2452;SDS011;63678;47.994;7.854;2022-09-21T01:07:46;6.85;;;3.30;;
2452;SDS011;63678;47.994;7.854;2022-09-21T01:10:18;8.27;;;3.60;;
2452;SDS011;63678;47.994;7.854;2022-09-21T01:12:58;6.68;;;3.35;;
2452;SDS011;63678;47.994;7.854;2022-09-21T01:15:44;6.85;;;3.33;;
2452;SDS011;63678;47.994;7.854;2022-09-21T01:18:43;7.47;;;3.30;;
2452;SDS011;63678;47.994;7.854;2022-09-21T01:21:50;7.60;;;3.03;;
2452;SDS011;63678;47.994;7.854;2022-09-21T01:25:02;8.07;;;3.30;;
2452;SDS011;63678;47.994;7.854;2022-09-21T01:31:00;7.28;;;3.10;;
2452;SDS011;63678;47.994;7.854;2022-09-21T01:33:44;6.28;;;3.08;;
2452;SDS011;63678;47.994;7.854;2022-09-21T01:36:23;8.43;;;3.30;;
2452;SDS011;63678;47.994;7.854;2022-09-21T01:38:59;6.50;;;3.30;;
2452;SDS011;63678;47.994;7.854;2022-09-21T01:41:35;7.82;;;3.50;;
2452;SDS011;63678;47.994;7.854;2022-09-21T01:44:11;7.55;;;3.50;;
2452;SDS011;63678;47.994;7.854;2022-09-21T01:46:48;7.47;;;3.20;;
2452;SDS011;63678;47.994;7.854;2022-09-21T01:49:23;5.50;;;2.92;;
2452;SDS011;63678;47.994;7.854;2022-09-21T01:52:01;6.78;;;3.40;;
2452;SDS011;63678;47.994;7.854;2022-09-21T01:54:43;7.03;;;3.58;;
2452;SDS011;63678;47.994;7.854;2022-09-21T01:57:28;7.73;;;3.20;;
2452;SDS011;63678;47.994;7.854;2022-09-21T02:00:09;7.85;;;3.40;;
2452;SDS011;63678;47.994;7.854;2022-09-21T02:02:44;6.10;;;3.60;;
2452;SDS011;63678;47.994;7.854;2022-09-21T02:05:29;7.40;;;3.40;;
2452;SDS011;63678;47.994;7.854;2022-09-21T02:08:01;5.55;;;3.20;;
2452;SDS011;63678;47.994;7.854;2022-09-21T02:11:10;6.97;;;3.30;;
2452;SDS011;63678;47.994;7.854;2022-09-21T02:13:37;7.45;;;3.45;;
2452;SDS011;63678;47.994;7.854;2022-09-21T02:16:22;5.55;;;3.20;;
2452;SDS011;63678;47.994;7.854;2022-09-21T02:22:30;8.93;;;3.50;;
2452;SDS011;63678;47.994;7.854;2022-09-21T02:25:04;7.22;;;3.88;;
2452;SDS011;63678;47.994;7.854;2022-09-21T02:30:48;5.90;;;3.40;;
2452;SDS011;63678;47.994;7.854;2022-09-21T02:33:33;6.90;;;3.50;;
2452;SDS011;63678;47.994;7.854;2022-09-21T02:36:32;6.67;;;3.53;;
2452;SDS011;63678;47.994;7.854;2022-09-21T02:39:18;8.05;;;3.53;;
2452;SDS011;63678;47.994;7.854;2022-09-21T02:44:38;8.85;;;3.53;;
2452;SDS011;63678;47.994;7.854;2022-09-21T02:48:18;8.73;;;3.55;;
2452;SDS011;63678;47.994;7.854;2022-09-21T02:50:50;8.25;;;3.47;;
2452;SDS011;63678;47.994;7.854;2022-09-21T02:53:26;7.85;;;3.55;;
2452;SDS011;63678;47.994;7.854;2022-09-21T02:56:01;6.70;;;3.28;;
2452;SDS011;63678;47.994;7.854;2022-09-21T02:58:39;8.20;;;3.40;;
2452;SDS011;63678;47.994;7.854;2022-09-21T03:01:14;6.80;;;3.38;;
2452;SDS011;63678;47.994;7.854;2022-09-21T03:03:47;8.02;;;3.50;;
2452;SDS011;63678;47.994;7.854;2022-09-21T03:06:20;7.03;;;3.50;;
2452;SDS011;63678;47.994;7.854;2022-09-21T03:08:52;7.00;;;3.70;;
2452;SDS011;63678;47.994;7.854;2022-09-21T03:11:24;8.95;;;3.38;;
2452;SDS011;63678;47.994;7.854;2022-09-21T03:13:57;7.65;;;3.42;;
2452;SDS011;63678;47.994;7.854;2022-09-21T03:16:30;7.13;;;3.63;;
2452;SDS011;63678;47.994;7.854;2022-09-21T03:19:02;7.53;;;3.30;;
2452;SDS011;63678;47.994;7.854;2022-09-21T03:21:37;6.68;;;3.50;;
2452;SDS011;63678;47.994;7.854;2022-09-21T03:24:14;7.87;;;3.87;;
2452;SDS011;63678;47.994;7.854;2022-09-21T03:27:06;6.45;;;3.60;;
2452;SDS011;63678;47.994;7.854;2022-09-21T03:29:39;9.18;;;3.78;;
2452;SDS011;63678;47.994;7.854;2022-09-21T03:32:12;6.53;;;3.70;;
2452;SDS011;63678;47.994;7.854;2022-09-21T03:34:44;6.88;;;3.60;;
2452;SDS011;63678;47.994;7.854;2022-09-21T03:37:17;10.23;;;4.20;;
2452;SDS011;63678;47.994;7.854;2022-09-21T03:39:49;8.52;;;4.10;;
2452;SDS011;63678;47.994;7.854;2022-09-21T03:42:21;8.80;;;4.40;;
2452;SDS011;63678;47.994;7.854;2022-09-21T03:44:53;8.45;;;3.92;;
2452;SDS011;63678;47.994;7.854;2022-09-21T03:47:25;10.37;;;4.27;;
2452;SDS011;63678;47.994;7.854;2022-09-21T03:49:59;7.82;;;4.10;;
2452;SDS011;63678;47.994;7.854;2022-09-21T03:52:32;8.40;;;4.30;;
2452;SDS011;63678;47.994;7.854;2022-09-21T03:55:05;9.23;;;4.22;;
2452;SDS011;63678;47.994;7.854;2022-09-21T03:57:39;8.50;;;4.20;;
2452;SDS011;63678;47.994;7.854;2022-09-21T04:00:11;8.13;;;3.97;;
2452;SDS011;63678;47.994;7.854;2022-09-21T04:02:44;9.55;;;4.00;;
2452;SDS011;63678;47.994;7.854;2022-09-21T04:05:17;8.40;;;4.03;;
2452;SDS011;63678;47.994;7.854;2022-09-21T04:07:49;11.27;;;4.03;;
2452;SDS011;63678;47.994;7.854;2022-09-21T04:10:22;7.45;;;3.90;;
2452;SDS011;63678;47.994;7.854;2022-09-21T04:12:58;7.93;;;3.88;;
2452;SDS011;63678;47.994;7.854;2022-09-21T04:15:31;9.95;;;4.03;;
2452;SDS011;63678;47.994;7.854;2022-09-21T04:18:04;9.02;;;4.00;;
2452;SDS011;63678;47.994;7.854;2022-09-21T04:20:36;8.00;;;4.25;;
2452;SDS011;63678;47.994;7.854;2022-09-21T04:23:09;10.17;;;4.07;;
2452;SDS011;63678;47.994;7.854;2022-09-21T04:25:42;9.48;;;4.28;;
2452;SDS011;63678;47.994;7.854;2022-09-21T04:28:14;9.90;;;4.07;;
2452;SDS011;63678;47.994;7.854;2022-09-21T04:30:47;8.30;;;4.20;;
2452;SDS011;63678;47.994;7.854;2022-09-21T04:33:20;8.63;;;4.20;;
2452;SDS011;63678;47.994;7.854;2022-09-21T04:35:54;10.60;;;4.25;;
2452;SDS011;63678;47.994;7.854;2022-09-21T04:38:27;9.18;;;4.40;;
2452;SDS011;63678;47.994;7.854;2022-09-21T04:40:59;9.03;;;4.33;;
2452;SDS011;63678;47.994;7.854;2022-09-21T04:43:33;9.88;;;4.65;;
2452;SDS011;63678;47.994;7.854;2022-09-21T04:46:07;8.30;;;4.30;;
2452;SDS011;63678;47.994;7.854;2022-09-21T04:48:41;9.35;;;4.50;;
2452;SDS011;63678;47.994;7.854;2022-09-21T04:51:14;8.40;;;4.32;;
2452;SDS011;63678;47.994;7.854;2022-09-21T04:53:47;8.70;;;4.22;;
2452;SDS011;63678;47.994;7.854;2022-09-21T04:56:20;10.48;;;5.40;;
2452;SDS011;63678;47.994;7.854;2022-09-21T04:58:52;10.85;;;4.95;;
2452;SDS011;63678;47.994;7.854;2022-09-21T05:01:24;11.45;;;5.95;;
2452;SDS011;63678;47.994;7.854;2022-09-21T05:03:57;9.82;;;5.43;;
2452;SDS011;63678;47.994;7.854;2022-09-21T05:06:32;9.57;;;4.93;;
2452;SDS011;63678;47.994;7.854;2022-09-21T05:09:05;11.30;;;5.30;;
2452;SDS011;63678;47.994;7.854;2022-09-21T05:11:57;11.05;;;5.40;;
2452;SDS011;63678;47.994;7.854;2022-09-21T05:14:30;9.80;;;5.10;;
2452;SDS011;63678;47.994;7.854;2022-09-21T05:17:02;8.68;;;4.20;;
2452;SDS011;63678;47.994;7.854;2022-09-21T05:19:34;8.32;;;4.78;;
2452;SDS011;63678;47.994;7.854;2022-09-21T05:22:06;8.80;;;4.32;;
2452;SDS011;63678;47.994;7.854;2022-09-21T05:24:39;7.03;;;4.43;;
2452;SDS011;63678;47.994;7.854;2022-09-21T05:27:11;8.90;;;4.32;;
2452;SDS011;63678;47.994;7.854;2022-09-21T05:29:43;8.02;;;4.50;;
2452;SDS011;63678;47.994;7.854;2022-09-21T05:32:22;12.80;;;4.40;;
2452;SDS011;63678;47.994;7.854;2022-09-21T05:40:15;8.95;;;4.68;;
2452;SDS011;63678;47.994;7.854;2022-09-21T05:42:47;7.70;;;4.72;;
2452;SDS011;63678;47.994;7.854;2022-09-21T05:45:20;8.50;;;4.60;;
2452;SDS011;63678;47.994;7.854;2022-09-21T06:01:20;10.27;;;5.15;;
2452;SDS011;63678;47.994;7.854;2022-09-21T06:03:56;9.75;;;4.90;;
2452;SDS011;63678;47.994;7.854;2022-09-21T06:06:29;8.90;;;4.68;;
2452;SDS011;63678;47.994;7.854;2022-09-21T06:09:02;7.95;;;4.60;;
2452;SDS011;63678;47.994;7.854;2022-09-21T06:11:34;9.55;;;4.93;;
2452;SDS011;63678;47.994;7.854;2022-09-21T06:14:06;10.50;;;5.05;;
2452;SDS011;63678;47.994;7.854;2022-09-21T06:16:38;11.60;;;5.30;;
2452;SDS011;63678;47.994;7.854;2022-09-21T06:19:12;12.18;;;5.88;;
2452;SDS011;63678;47.994;7.854;2022-09-21T06:21:45;10.70;;;5.60;;
2452;SDS011;63678;47.994;7.854;2022-09-21T06:24:17;9.60;;;5.20;;
2452;SDS011;63678;47.994;7.854;2022-09-21T06:26:50;11.67;;;5.30;;
2452;SDS011;63678;47.994;7.854;2022-09-21T06:29:21;11.30;;;5.00;;
2452;SDS011;63678;47.994;7.854;2022-09-21T06:31:54;10.70;;;5.53;;
2452;SDS011;63678;47.994;7.854;2022-09-21T06:34:27;13.63;;;6.03;;
2452;SDS011;63678;47.994;7.854;2022-09-21T06:36:59;14.73;;;6.13;;
2452;SDS011;63678;47.994;7.854;2022-09-21T06:39:31;9.88;;;6.07;;
2452;SDS011;63678;47.994;7.854;2022-09-21T06:42:03;14.85;;;6.93;;
2452;SDS011;63678;47.994;7.854;2022-09-21T06:44:36;12.45;;;6.00;;
2452;SDS011;63678;47.994;7.854;2022-09-21T06:47:08;12.48;;;5.72;;
2452;SDS011;63678;47.994;7.854;2022-09-21T06:49:40;13.07;;;6.03;;
2452;SDS011;63678;47.994;7.854;2022-09-21T06:52:13;10.85;;;5.90;;
2452;SDS011;63678;47.994;7.854;2022-09-21T06:54:46;11.48;;;5.90;;
2452;SDS011;63678;47.994;7.854;2022-09-21T06:57:18;12.23;;;6.00;;
2452;SDS011;63678;47.994;7.854;2022-09-21T06:59:51;21.17;;;6.57;;
2452;SDS011;63678;47.994;7.854;2022-09-21T07:02:23;12.55;;;6.20;;
2452;SDS011;63678;47.994;7.854;2022-09-21T07:04:56;11.65;;;6.55;;
2452;SDS011;63678;47.994;7.854;2022-09-21T07:07:29;12.57;;;6.70;;
2452;SDS011;63678;47.994;7.854;2022-09-21T07:10:02;10.85;;;6.32;;
2452;SDS011;63678;47.994;7.854;2022-09-21T07:12:37;12.00;;;6.63;;
2452;SDS011;63678;47.994;7.854;2022-09-21T07:15:09;14.83;;;6.47;;
2452;SDS011;63678;47.994;7.854;2022-09-21T07:17:42;12.23;;;6.50;;
2452;SDS011;63678;47.994;7.854;2022-09-21T07:20:22;12.52;;;6.22;;
2452;SDS011;63678;47.994;7.854;2022-09-21T07:22:55;11.38;;;6.70;;
2452;SDS011;63678;47.994;7.854;2022-09-21T07:25:28;10.95;;;6.22;;
2452;SDS011;63678;47.994;7.854;2022-09-21T07:28:01;12.48;;;6.43;;
2452;SDS011;63678;47.994;7.854;2022-09-21T07:30:34;12.13;;;6.03;;
2452;SDS011;63678;47.994;7.854;2022-09-21T07:33:07;9.13;;;6.10;;
2452;SDS011;63678;47.994;7.854;2022-09-21T07:35:48;10.23;;;5.70;;
2452;SDS011;63678;47.994;7.854;2022-09-21T07:38:21;12.30;;;5.90;;
2452;SDS011;63678;47.994;7.854;2022-09-21T07:40:54;9.10;;;5.70;;
2452;SDS011;63678;47.994;7.854;2022-09-21T07:43:26;9.45;;;5.57;;
2452;SDS011;63678;47.994;7.854;2022-09-21T07:45:59;9.88;;;5.30;;
2452;SDS011;63678;47.994;7.854;2022-09-21T07:48:34;10.73;;;5.80;;
2452;SDS011;63678;47.994;7.854;2022-09-21T07:51:09;11.53;;;5.57;;
2452;SDS011;63678;47.994;7.854;2022-09-21T07:53:42;10.20;;;5.72;;
2452;SDS011;63678;47.994;7.854;2022-09-21T07:56:15;9.65;;;5.78;;
2452;SDS011;63678;47.994;7.854;2022-09-21T07:58:48;11.27;;;6.15;;
2452;SDS011;63678;47.994;7.854;2022-09-21T08:01:45;9.07;;;5.78;;
2452;SDS011;63678;47.994;7.854;2022-09-21T08:04:18;13.25;;;6.28;;
2452;SDS011;63678;47.994;7.854;2022-09-21T08:06:50;10.55;;;6.18;;
2452;SDS011;63678;47.994;7.854;2022-09-21T08:09:22;10.43;;;6.03;;
2452;SDS011;63678;47.994;7.854;2022-09-21T08:11:54;9.88;;;5.15;;
2452;SDS011;63678;47.994;7.854;2022-09-21T08:14:27;10.95;;;5.32;;
2452;SDS011;63678;47.994;7.854;2022-09-21T08:17:00;10.23;;;5.05;;
2452;SDS011;63678;47.994;7.854;2022-09-21T08:19:34;10.60;;;5.20;;
2452;SDS011;63678;47.994;7.854;2022-09-21T08:22:06;9.63;;;4.97;;
2452;SDS011;63678;47.994;7.854;2022-09-21T08:24:39;9.98;;;4.55;;
2452;SDS011;63678;47.994;7.854;2022-09-21T08:27:16;9.48;;;4.75;;
2452;SDS011;63678;47.994;7.854;2022-09-21T08:29:49;10.07;;;4.60;;
2452;SDS011;63678;47.994;7.854;2022-09-21T08:32:22;12.68;;;4.80;;
2452;SDS011;63678;47.994;7.854;2022-09-21T08:35:14;8.93;;;4.38;;
2452;SDS011;63678;47.994;7.854;2022-09-21T08:37:46;7.93;;;4.30;;
2452;SDS011;63678;47.994;7.854;2022-09-21T08:40:21;8.17;;;4.40;;
2452;SDS011;63678;47.994;7.854;2022-09-21T08:43:08;11.45;;;4.40;;
2452;SDS011;63678;47.994;7.854;2022-09-21T08:45:44;9.60;;;4.10;;
2452;SDS011;63678;47.994;7.854;2022-09-21T08:48:27;10.55;;;4.57;;
2452;SDS011;63678;47.994;7.854;2022-09-21T08:51:08;10.35;;;3.97;;
2452;SDS011;63678;47.994;7.854;2022-09-21T08:53:43;9.07;;;3.93;;
2452;SDS011;63678;47.994;7.854;2022-09-21T08:56:18;8.13;;;4.20;;
2452;SDS011;63678;47.994;7.854;2022-09-21T08:58:52;10.70;;;4.10;;
2452;SDS011;63678;47.994;7.854;2022-09-21T09:01:30;9.93;;;3.87;;
2452;SDS011;63678;47.994;7.854;2022-09-21T09:12:56;7.75;;;4.07;;
2452;SDS011;63678;47.994;7.854;2022-09-21T09:18:28;10.17;;;4.47;;
2452;SDS011;63678;47.994;7.854;2022-09-21T09:24:02;8.82;;;3.83;;
2452;SDS011;63678;47.994;7.854;2022-09-21T09:32:17;10.13;;;3.93;;
2452;SDS011;63678;47.994;7.854;2022-09-21T09:34:51;8.73;;;4.00;;
2452;SDS011;63678;47.994;7.854;2022-09-21T09:37:30;8.60;;;4.07;;
2452;SDS011;63678;47.994;7.854;2022-09-21T09:40:05;9.30;;;3.75;;
2452;SDS011;63678;47.994;7.854;2022-09-21T09:45:26;9.38;;;4.00;;
2452;SDS011;63678;47.994;7.854;2022-09-21T09:51:09;7.75;;;3.55;;
2452;SDS011;63678;47.994;7.854;2022-09-21T09:53:43;8.50;;;3.50;;
2452;SDS011;63678;47.994;7.854;2022-09-21T09:56:15;8.43;;;3.70;;
2452;SDS011;63678;47.994;7.854;2022-09-21T10:01:34;8.90;;;3.38;;
2452;SDS011;63678;47.994;7.854;2022-09-21T10:04:14;7.93;;;3.30;;
2452;SDS011;63678;47.994;7.854;2022-09-21T10:06:48;7.03;;;2.90;;
2452;SDS011;63678;47.994;7.854;2022-09-21T10:09:30;6.38;;;2.75;;
2452;SDS011;63678;47.994;7.854;2022-09-21T10:12:23;6.83;;;2.77;;
2452;SDS011;63678;47.994;7.854;2022-09-21T10:14:56;8.67;;;3.23;;
2452;SDS011;63678;47.994;7.854;2022-09-21T10:17:31;9.30;;;2.90;;
2452;SDS011;63678;47.994;7.854;2022-09-21T10:20:05;8.27;;;3.10;;
2452;SDS011;63678;47.994;7.854;2022-09-21T10:22:40;8.05;;;2.88;;
2452;SDS011;63678;47.994;7.854;2022-09-21T10:25:18;6.80;;;2.90;;
2452;SDS011;63678;47.994;7.854;2022-09-21T10:27:51;7.55;;;2.85;;
2452;SDS011;63678;47.994;7.854;2022-09-21T10:33:00;6.23;;;2.70;;
2452;SDS011;63678;47.994;7.854;2022-09-21T10:35:33;7.00;;;2.55;;
2452;SDS011;63678;47.994;7.854;2022-09-21T10:38:19;4.93;;;2.10;;
2452;SDS011;63678;47.994;7.854;2022-09-21T10:40:58;6.45;;;2.55;;
2452;SDS011;63678;47.994;7.854;2022-09-21T10:43:33;7.03;;;2.40;;
2452;SDS011;63678;47.994;7.854;2022-09-21T10:46:12;5.60;;;2.20;;
2452;SDS011;63678;47.994;7.854;2022-09-21T10:48:45;5.60;;;2.22;;
2452;SDS011;63678;47.994;7.854;2022-09-21T11:35:48;7.57;;;2.60;;
2452;SDS011;63678;47.994;7.854;2022-09-21T11:56:39;11.27;;;3.33;;
2452;SDS011;63678;47.994;7.854;2022-09-21T13:00:10;5.30;;;2.20;;
2452;SDS011;63678;47.994;7.854;2022-09-21T13:02:58;4.03;;;2.13;;
2452;SDS011;63678;47.994;7.854;2022-09-21T13:07:16;5.00;;;2.20;;
2452;SDS011;63678;47.994;7.854;2022-09-21T13:09:54;4.97;;;2.30;;
2452;SDS011;63678;47.994;7.854;2022-09-21T13:12:29;4.10;;;2.42;;
2452;SDS011;63678;47.994;7.854;2022-09-21T13:15:26;6.70;;;2.63;;
2452;SDS011;63678;47.994;7.854;2022-09-21T13:17:59;4.28;;;2.30;;
2452;SDS011;63678;47.994;7.854;2022-09-21T13:20:37;4.90;;;2.13;;
2452;SDS011;63678;47.994;7.854;2022-09-21T13:23:15;6.85;;;2.40;;
2452;SDS011;63678;47.994;7.854;2022-09-21T13:25:49;4.68;;;1.80;;
2452;SDS011;63678;47.994;7.854;2022-09-21T13:28:22;5.05;;;2.33;;
2452;SDS011;63678;47.994;7.854;2022-09-21T13:37:12;4.18;;;2.30;;
2452;SDS011;63678;47.994;7.854;2022-09-21T13:39:42;4.20;;;2.22;;
2452;SDS011;63678;47.994;7.854;2022-09-21T13:47:49;5.33;;;2.50;;
2452;SDS011;63678;47.994;7.854;2022-09-21T13:50:24;4.40;;;2.35;;
2452;SDS011;63678;47.994;7.854;2022-09-21T13:53:02;3.45;;;1.90;;
2452;SDS011;63678;47.994;7.854;2022-09-21T13:55:38;5.88;;;2.05;;
2452;SDS011;63678;47.994;7.854;2022-09-21T13:58:30;4.75;;;1.80;;
2452;SDS011;63678;47.994;7.854;2022-09-21T14:01:13;5.27;;;2.87;;
2452;SDS011;63678;47.994;7.854;2022-09-21T14:04:19;4.32;;;2.10;;
2452;SDS011;63678;47.994;7.854;2022-09-21T14:06:54;5.80;;;2.28;;
2452;SDS011;63678;47.994;7.854;2022-09-21T14:09:29;5.10;;;1.90;;
2452;SDS011;63678;47.994;7.854;2022-09-21T14:12:04;6.20;;;2.33;;
2452;SDS011;63678;47.994;7.854;2022-09-21T14:14:38;4.60;;;2.10;;
2452;SDS011;63678;47.994;7.854;2022-09-21T14:20:05;5.00;;;2.25;;
2452;SDS011;63678;47.994;7.854;2022-09-21T14:22:38;5.97;;;1.83;;
2452;SDS011;63678;47.994;7.854;2022-09-21T14:25:21;3.67;;;2.13;;
2452;SDS011;63678;47.994;7.854;2022-09-21T14:27:57;4.73;;;2.27;;
2452;SDS011;63678;47.994;7.854;2022-09-21T14:30:32;5.03;;;2.00;;
2452;SDS011;63678;47.994;7.854;2022-09-21T14:33:14;3.42;;;2.10;;
2452;SDS011;63678;47.994;7.854;2022-09-21T14:35:48;5.57;;;2.25;;
2452;SDS011;63678;47.994;7.854;2022-09-21T14:38:27;4.85;;;2.33;;
2452;SDS011;63678;47.994;7.854;2022-09-21T14:41:02;5.40;;;1.93;;
2452;SDS011;63678;47.994;7.854;2022-09-21T14:43:38;4.72;;;1.95;;
2452;SDS011;63678;47.994;7.854;2022-09-21T14:46:34;6.10;;;1.80;;
2452;SDS011;63678;47.994;7.854;2022-09-21T14:55:03;4.20;;;2.03;;
2452;SDS011;63678;47.994;7.854;2022-09-21T14:58:04;4.65;;;1.92;;
2452;SDS011;63678;47.994;7.854;2022-09-21T15:00:40;4.28;;;2.30;;
2452;SDS011;63678;47.994;7.854;2022-09-21T15:03:39;6.00;;;2.72;;
2452;SDS011;63678;47.994;7.854;2022-09-21T15:09:13;6.20;;;2.03;;
2452;SDS011;63678;47.994;7.854;2022-09-21T15:12:09;4.30;;;2.08;;
2452;SDS011;63678;47.994;7.854;2022-09-21T15:14:46;3.88;;;2.35;;
2452;SDS011;63678;47.994;7.854;2022-09-21T15:17:24;4.75;;;2.08;;
2452;SDS011;63678;47.994;7.854;2022-09-21T15:20:01;7.00;;;1.73;;
2452;SDS011;63678;47.994;7.854;2022-09-21T15:22:45;7.27;;;3.70;;
2452;SDS011;63678;47.994;7.854;2022-09-21T15:25:18;4.55;;;2.30;;
2452;SDS011;63678;47.994;7.854;2022-09-21T15:27:51;4.57;;;1.90;;
2452;SDS011;63678;47.994;7.854;2022-09-21T15:30:24;4.65;;;1.90;;
2452;SDS011;63678;47.994;7.854;2022-09-21T15:32:59;4.15;;;1.98;;
2452;SDS011;63678;47.994;7.854;2022-09-21T15:35:32;4.80;;;2.33;;
2452;SDS011;63678;47.994;7.854;2022-09-21T15:38:24;4.95;;;2.13;;
2452;SDS011;63678;47.994;7.854;2022-09-21T15:41:35;4.85;;;1.67;;
2452;SDS011;63678;47.994;7.854;2022-09-21T15:44:17;5.47;;;1.85;;
2452;SDS011;63678;47.994;7.854;2022-09-21T15:46:52;4.10;;;1.92;;
2452;SDS011;63678;47.994;7.854;2022-09-21T15:49:30;5.07;;;2.33;;
2452;SDS011;63678;47.994;7.854;2022-09-21T15:52:09;4.07;;;1.58;;
2452;SDS011;63678;47.994;7.854;2022-09-21T16:19:43;4.07;;;2.38;;
2452;SDS011;63678;47.994;7.854;2022-09-21T16:22:46;6.15;;;2.30;;
2452;SDS011;63678;47.994;7.854;2022-09-21T16:30:49;3.80;;;2.10;;
2452;SDS011;63678;47.994;7.854;2022-09-21T16:39:07;4.22;;;2.00;;
2452;SDS011;63678;47.994;7.854;2022-09-21T16:41:47;5.13;;;2.25;;
2452;SDS011;63678;47.994;7.854;2022-09-21T16:44:24;3.83;;;2.10;;
2452;SDS011;63678;47.994;7.854;2022-09-21T16:47:10;3.80;;;1.77;;
2452;SDS011;63678;47.994;7.854;2022-09-21T16:49:45;4.03;;;2.20;;
2452;SDS011;63678;47.994;7.854;2022-09-21T16:52:17;4.10;;;2.13;;
2452;SDS011;63678;47.994;7.854;2022-09-21T16:54:50;4.30;;;2.08;;
2452;SDS011;63678;47.994;7.854;2022-09-21T16:57:22;6.23;;;2.60;;
2452;SDS011;63678;47.994;7.854;2022-09-21T16:59:55;5.25;;;2.40;;
2452;SDS011;63678;47.994;7.854;2022-09-21T17:02:27;4.55;;;2.50;;
2452;SDS011;63678;47.994;7.854;2022-09-21T17:05:00;4.78;;;2.58;;
2452;SDS011;63678;47.994;7.854;2022-09-21T17:07:32;5.35;;;2.28;;
2452;SDS011;63678;47.994;7.854;2022-09-21T17:10:09;4.43;;;2.07;;
2452;SDS011;63678;47.994;7.854;2022-09-21T17:12:45;4.80;;;2.35;;
2452;SDS011;63678;47.994;7.854;2022-09-21T17:15:17;4.45;;;2.20;;
2452;SDS011;63678;47.994;7.854;2022-09-21T17:17:50;12.40;;;3.20;;
2452;SDS011;63678;47.994;7.854;2022-09-21T17:23:06;6.90;;;2.47;;
2452;SDS011;63678;47.994;7.854;2022-09-21T17:25:38;4.80;;;1.85;;
2452;SDS011;63678;47.994;7.854;2022-09-21T17:28:14;5.75;;;3.15;;
2452;SDS011;63678;47.994;7.854;2022-09-21T17:30:54;7.25;;;2.58;;
2452;SDS011;63678;47.994;7.854;2022-09-21T17:33:26;4.28;;;1.90;;
2452;SDS011;63678;47.994;7.854;2022-09-21T17:35:58;7.07;;;2.67;;
2452;SDS011;63678;47.994;7.854;2022-09-21T17:38:30;5.95;;;2.53;;
2452;SDS011;63678;47.994;7.854;2022-09-21T17:41:02;4.10;;;2.08;;
2452;SDS011;63678;47.994;7.854;2022-09-21T17:43:39;3.70;;;1.80;;
2452;SDS011;63678;47.994;7.854;2022-09-21T17:46:22;5.40;;;2.20;;
2452;SDS011;63678;47.994;7.854;2022-09-21T17:49:02;3.77;;;2.37;;
2452;SDS011;63678;47.994;7.854;2022-09-21T17:51:34;7.10;;;2.30;;
2452;SDS011;63678;47.994;7.854;2022-09-21T17:54:26;5.03;;;2.10;;
2452;SDS011;63678;47.994;7.854;2022-09-21T17:59:36;5.53;;;2.00;;
2452;SDS011;63678;47.994;7.854;2022-09-21T18:02:20;3.90;;;2.20;;
2452;SDS011;63678;47.994;7.854;2022-09-21T18:04:58;3.80;;;2.20;;
2452;SDS011;63678;47.994;7.854;2022-09-21T18:07:34;4.45;;;2.40;;
2452;SDS011;63678;47.994;7.854;2022-09-21T18:10:07;5.25;;;2.53;;
2452;SDS011;63678;47.994;7.854;2022-09-21T18:18:39;4.18;;;2.13;;
2452;SDS011;63678;47.994;7.854;2022-09-21T18:21:22;3.92;;;2.30;;
2452;SDS011;63678;47.994;7.854;2022-09-21T18:26:45;4.55;;;2.38;;
2452;SDS011;63678;47.994;7.854;2022-09-21T18:29:22;5.63;;;2.60;;
2452;SDS011;63678;47.994;7.854;2022-09-21T19:18:05;6.68;;;3.55;;
2452;SDS011;63678;47.994;7.854;2022-09-21T19:27:01;5.77;;;3.17;;
2452;SDS011;63678;47.994;7.854;2022-09-21T19:29:47;5.60;;;3.33;;
2452;SDS011;63678;47.994;7.854;2022-09-21T19:32:30;8.43;;;3.53;;
2452;SDS011;63678;47.994;7.854;2022-09-21T19:37:54;6.20;;;3.40;;
2452;SDS011;63678;47.994;7.854;2022-09-21T19:40:28;5.83;;;3.40;;
2452;SDS011;63678;47.994;7.854;2022-09-21T19:43:20;8.10;;;3.67;;
